sensor_id;sensor_type;location;lat;lon;timestamp;P1;durP1;ratioP1;P2;durP2;ratioP2
4053;SDS011;2042;47.956;9.222;2024-01-10T00:01:24;17.37;;;10.80;;
4053;SDS011;2042;47.956;9.222;2024-01-10T00:03:55;17.33;;;9.60;;
4053;SDS011;2042;47.956;9.222;2024-01-10T00:06:20;20.07;;;11.27;;
4053;SDS011;2042;47.956;9.222;2024-01-10T00:08:46;19.40;;;12.20;;
4053;SDS011;2042;47.956;9.222;2024-01-10T00:11:12;19.20;;;11.73;;
4053;SDS011;2042;47.956;9.222;2024-01-10T00:13:38;20.43;;;11.90;;
4053;SDS011;2042;47.956;9.222;2024-01-10T00:16:04;24.30;;;11.70;;
4053;SDS011;2042;47.956;9.222;2024-01-10T00:18:30;20.37;;;11.20;;
4053;SDS011;2042;47.956;9.222;2024-01-10T00:20:55;15.33;;;10.50;;
4053;SDS011;2042;47.956;9.222;2024-01-10T00:23:23;21.23;;;10.70;;
4053;SDS011;2042;47.956;9.222;2024-01-10T00:25:49;20.23;;;12.57;;
4053;SDS011;2042;47.956;9.222;2024-01-10T00:28:15;16.87;;;10.70;;
4053;SDS011;2042;47.956;9.222;2024-01-10T00:30:44;20.73;;;12.83;;
4053;SDS011;2042;47.956;9.222;2024-01-10T00:33:12;20.77;;;11.93;;
4053;SDS011;2042;47.956;9.222;2024-01-10T00:35:38;25.53;;;12.07;;
4053;SDS011;2042;47.956;9.222;2024-01-10T00:38:03;18.40;;;11.50;;
4053;SDS011;2042;47.956;9.222;2024-01-10T00:40:29;27.27;;;14.60;;
4053;SDS011;2042;47.956;9.222;2024-01-10T00:42:55;17.37;;;11.33;;
4053;SDS011;2042;47.956;9.222;2024-01-10T00:45:20;23.80;;;12.67;;
4053;SDS011;2042;47.956;9.222;2024-01-10T00:47:48;17.93;;;12.10;;
4053;SDS011;2042;47.956;9.222;2024-01-10T00:50:14;21.70;;;13.07;;
4053;SDS011;2042;47.956;9.222;2024-01-10T00:52:40;21.80;;;13.00;;
4053;SDS011;2042;47.956;9.222;2024-01-10T00:55:05;24.50;;;13.00;;
4053;SDS011;2042;47.956;9.222;2024-01-10T00:57:31;24.10;;;13.23;;
4053;SDS011;2042;47.956;9.222;2024-01-10T00:59:57;20.00;;;13.53;;
4053;SDS011;2042;47.956;9.222;2024-01-10T01:02:23;16.87;;;11.90;;
4053;SDS011;2042;47.956;9.222;2024-01-10T01:04:48;17.50;;;11.10;;
4053;SDS011;2042;47.956;9.222;2024-01-10T01:07:14;19.90;;;10.83;;
4053;SDS011;2042;47.956;9.222;2024-01-10T01:09:39;20.57;;;12.50;;
4053;SDS011;2042;47.956;9.222;2024-01-10T01:12:05;19.83;;;11.33;;
4053;SDS011;2042;47.956;9.222;2024-01-10T01:14:31;21.50;;;11.80;;
4053;SDS011;2042;47.956;9.222;2024-01-10T01:16:57;20.30;;;13.37;;
4053;SDS011;2042;47.956;9.222;2024-01-10T01:19:22;15.97;;;11.70;;
4053;SDS011;2042;47.956;9.222;2024-01-10T01:21:48;19.17;;;12.33;;
4053;SDS011;2042;47.956;9.222;2024-01-10T01:24:16;17.23;;;11.27;;
4053;SDS011;2042;47.956;9.222;2024-01-10T01:26:41;15.13;;;10.73;;
4053;SDS011;2042;47.956;9.222;2024-01-10T01:29:07;20.40;;;13.00;;
4053;SDS011;2042;47.956;9.222;2024-01-10T01:31:33;23.85;;;15.40;;
4053;SDS011;2042;47.956;9.222;2024-01-10T01:33:59;19.17;;;11.60;;
4053;SDS011;2042;47.956;9.222;2024-01-10T01:36:25;21.87;;;12.40;;
4053;SDS011;2042;47.956;9.222;2024-01-10T01:38:50;22.00;;;13.83;;
4053;SDS011;2042;47.956;9.222;2024-01-10T01:41:16;24.77;;;12.47;;
4053;SDS011;2042;47.956;9.222;2024-01-10T01:43:43;15.77;;;10.57;;
4053;SDS011;2042;47.956;9.222;2024-01-10T01:46:09;16.93;;;11.53;;
4053;SDS011;2042;47.956;9.222;2024-01-10T01:48:35;14.73;;;9.80;;
4053;SDS011;2042;47.956;9.222;2024-01-10T01:51:02;19.27;;;11.00;;
4053;SDS011;2042;47.956;9.222;2024-01-10T01:53:30;16.90;;;10.73;;
4053;SDS011;2042;47.956;9.222;2024-01-10T01:55:57;18.90;;;11.50;;
4053;SDS011;2042;47.956;9.222;2024-01-10T01:58:25;19.13;;;12.10;;
4053;SDS011;2042;47.956;9.222;2024-01-10T02:00:51;23.20;;;12.47;;
4053;SDS011;2042;47.956;9.222;2024-01-10T02:03:17;17.60;;;10.90;;
4053;SDS011;2042;47.956;9.222;2024-01-10T02:05:42;21.73;;;11.23;;
4053;SDS011;2042;47.956;9.222;2024-01-10T02:08:08;17.50;;;10.30;;
4053;SDS011;2042;47.956;9.222;2024-01-10T02:10:34;18.50;;;10.93;;
4053;SDS011;2042;47.956;9.222;2024-01-10T02:13:00;18.00;;;10.93;;
4053;SDS011;2042;47.956;9.222;2024-01-10T02:15:26;18.90;;;10.50;;
4053;SDS011;2042;47.956;9.222;2024-01-10T02:17:53;22.30;;;13.23;;
4053;SDS011;2042;47.956;9.222;2024-01-10T02:20:18;21.87;;;12.00;;
4053;SDS011;2042;47.956;9.222;2024-01-10T02:22:46;20.40;;;12.97;;
4053;SDS011;2042;47.956;9.222;2024-01-10T02:25:13;20.03;;;11.23;;
4053;SDS011;2042;47.956;9.222;2024-01-10T02:27:39;20.80;;;14.10;;
4053;SDS011;2042;47.956;9.222;2024-01-10T02:30:06;19.80;;;12.03;;
4053;SDS011;2042;47.956;9.222;2024-01-10T02:32:33;15.37;;;11.00;;
4053;SDS011;2042;47.956;9.222;2024-01-10T02:34:59;16.07;;;10.37;;
4053;SDS011;2042;47.956;9.222;2024-01-10T02:37:25;21.83;;;11.17;;
4053;SDS011;2042;47.956;9.222;2024-01-10T02:39:50;18.93;;;11.63;;
4053;SDS011;2042;47.956;9.222;2024-01-10T02:42:16;18.13;;;12.33;;
4053;SDS011;2042;47.956;9.222;2024-01-10T02:44:42;16.00;;;12.30;;
4053;SDS011;2042;47.956;9.222;2024-01-10T02:47:08;23.13;;;12.00;;
4053;SDS011;2042;47.956;9.222;2024-01-10T02:49:34;25.03;;;13.97;;
4053;SDS011;2042;47.956;9.222;2024-01-10T02:52:00;17.50;;;11.57;;
4053;SDS011;2042;47.956;9.222;2024-01-10T02:54:26;18.37;;;10.77;;
4053;SDS011;2042;47.956;9.222;2024-01-10T02:56:52;15.83;;;11.30;;
4053;SDS011;2042;47.956;9.222;2024-01-10T02:59:17;16.53;;;10.17;;
4053;SDS011;2042;47.956;9.222;2024-01-10T03:01:43;23.80;;;13.30;;
4053;SDS011;2042;47.956;9.222;2024-01-10T03:04:09;23.90;;;12.50;;
4053;SDS011;2042;47.956;9.222;2024-01-10T03:06:35;19.60;;;10.77;;
4053;SDS011;2042;47.956;9.222;2024-01-10T03:09:01;16.80;;;9.87;;
4053;SDS011;2042;47.956;9.222;2024-01-10T03:11:27;16.93;;;11.63;;
4053;SDS011;2042;47.956;9.222;2024-01-10T03:14:02;18.23;;;12.03;;
4053;SDS011;2042;47.956;9.222;2024-01-10T03:16:32;16.43;;;12.57;;
4053;SDS011;2042;47.956;9.222;2024-01-10T03:18:59;27.57;;;13.00;;
4053;SDS011;2042;47.956;9.222;2024-01-10T03:21:25;18.30;;;10.77;;
4053;SDS011;2042;47.956;9.222;2024-01-10T03:23:52;17.87;;;11.00;;
4053;SDS011;2042;47.956;9.222;2024-01-10T03:26:20;22.00;;;13.10;;
4053;SDS011;2042;47.956;9.222;2024-01-10T03:28:46;21.47;;;13.47;;
4053;SDS011;2042;47.956;9.222;2024-01-10T03:31:11;22.00;;;12.20;;
4053;SDS011;2042;47.956;9.222;2024-01-10T03:33:37;27.10;;;14.67;;
4053;SDS011;2042;47.956;9.222;2024-01-10T03:36:03;22.30;;;12.70;;
4053;SDS011;2042;47.956;9.222;2024-01-10T03:38:29;17.50;;;12.37;;
4053;SDS011;2042;47.956;9.222;2024-01-10T03:40:55;22.77;;;12.17;;
4053;SDS011;2042;47.956;9.222;2024-01-10T03:43:21;18.33;;;12.10;;
4053;SDS011;2042;47.956;9.222;2024-01-10T03:45:46;20.43;;;12.80;;
4053;SDS011;2042;47.956;9.222;2024-01-10T03:48:12;23.77;;;12.07;;
4053;SDS011;2042;47.956;9.222;2024-01-10T03:50:37;23.40;;;13.63;;
4053;SDS011;2042;47.956;9.222;2024-01-10T03:53:03;22.17;;;13.60;;
4053;SDS011;2042;47.956;9.222;2024-01-10T03:55:29;18.70;;;12.13;;
4053;SDS011;2042;47.956;9.222;2024-01-10T03:57:55;23.73;;;14.57;;
4053;SDS011;2042;47.956;9.222;2024-01-10T04:00:21;20.03;;;12.00;;
4053;SDS011;2042;47.956;9.222;2024-01-10T04:02:47;18.37;;;11.73;;
4053;SDS011;2042;47.956;9.222;2024-01-10T04:05:12;24.23;;;12.97;;
4053;SDS011;2042;47.956;9.222;2024-01-10T04:07:41;24.10;;;12.13;;
4053;SDS011;2042;47.956;9.222;2024-01-10T04:10:11;17.00;;;10.60;;
4053;SDS011;2042;47.956;9.222;2024-01-10T04:12:39;20.50;;;12.40;;
4053;SDS011;2042;47.956;9.222;2024-01-10T04:15:05;20.20;;;13.90;;
4053;SDS011;2042;47.956;9.222;2024-01-10T04:17:32;24.87;;;13.70;;
4053;SDS011;2042;47.956;9.222;2024-01-10T04:19:58;20.40;;;13.90;;
4053;SDS011;2042;47.956;9.222;2024-01-10T04:22:24;18.90;;;12.90;;
4053;SDS011;2042;47.956;9.222;2024-01-10T04:24:50;29.87;;;13.23;;
4053;SDS011;2042;47.956;9.222;2024-01-10T04:27:16;22.57;;;12.87;;
4053;SDS011;2042;47.956;9.222;2024-01-10T04:29:43;22.40;;;11.77;;
4053;SDS011;2042;47.956;9.222;2024-01-10T04:32:12;22.13;;;10.73;;
4053;SDS011;2042;47.956;9.222;2024-01-10T04:34:38;21.90;;;11.57;;
4053;SDS011;2042;47.956;9.222;2024-01-10T04:37:03;21.90;;;13.67;;
4053;SDS011;2042;47.956;9.222;2024-01-10T04:39:29;24.13;;;13.47;;
4053;SDS011;2042;47.956;9.222;2024-01-10T04:41:55;20.20;;;12.80;;
4053;SDS011;2042;47.956;9.222;2024-01-10T04:44:20;21.53;;;13.10;;
4053;SDS011;2042;47.956;9.222;2024-01-10T04:46:46;25.13;;;12.10;;
4053;SDS011;2042;47.956;9.222;2024-01-10T04:49:11;20.43;;;13.53;;
4053;SDS011;2042;47.956;9.222;2024-01-10T04:51:37;15.20;;;10.87;;
4053;SDS011;2042;47.956;9.222;2024-01-10T04:54:03;24.33;;;14.40;;
4053;SDS011;2042;47.956;9.222;2024-01-10T04:56:28;23.37;;;13.23;;
4053;SDS011;2042;47.956;9.222;2024-01-10T04:58:54;23.57;;;14.07;;
4053;SDS011;2042;47.956;9.222;2024-01-10T05:01:20;22.23;;;13.20;;
4053;SDS011;2042;47.956;9.222;2024-01-10T05:03:45;23.13;;;14.47;;
4053;SDS011;2042;47.956;9.222;2024-01-10T05:06:11;22.90;;;13.30;;
4053;SDS011;2042;47.956;9.222;2024-01-10T05:08:36;19.37;;;12.87;;
4053;SDS011;2042;47.956;9.222;2024-01-10T05:11:02;19.27;;;12.30;;
4053;SDS011;2042;47.956;9.222;2024-01-10T05:13:28;18.60;;;11.77;;
4053;SDS011;2042;47.956;9.222;2024-01-10T05:15:54;19.00;;;12.03;;
4053;SDS011;2042;47.956;9.222;2024-01-10T05:18:20;21.77;;;11.50;;
4053;SDS011;2042;47.956;9.222;2024-01-10T05:20:47;16.83;;;10.83;;
4053;SDS011;2042;47.956;9.222;2024-01-10T05:23:13;18.57;;;11.90;;
4053;SDS011;2042;47.956;9.222;2024-01-10T05:25:38;21.10;;;12.20;;
4053;SDS011;2042;47.956;9.222;2024-01-10T05:28:05;22.70;;;11.30;;
4053;SDS011;2042;47.956;9.222;2024-01-10T05:30:31;28.93;;;14.37;;
4053;SDS011;2042;47.956;9.222;2024-01-10T05:32:57;33.80;;;15.20;;
4053;SDS011;2042;47.956;9.222;2024-01-10T05:35:26;25.90;;;13.50;;
4053;SDS011;2042;47.956;9.222;2024-01-10T05:37:52;14.80;;;11.27;;
4053;SDS011;2042;47.956;9.222;2024-01-10T05:40:18;25.33;;;13.87;;
4053;SDS011;2042;47.956;9.222;2024-01-10T05:42:44;23.00;;;13.67;;
4053;SDS011;2042;47.956;9.222;2024-01-10T05:45:09;26.90;;;15.27;;
4053;SDS011;2042;47.956;9.222;2024-01-10T05:47:35;15.40;;;10.97;;
4053;SDS011;2042;47.956;9.222;2024-01-10T05:50:02;17.43;;;11.77;;
4053;SDS011;2042;47.956;9.222;2024-01-10T05:52:31;19.83;;;12.43;;
4053;SDS011;2042;47.956;9.222;2024-01-10T05:54:58;16.40;;;11.33;;
4053;SDS011;2042;47.956;9.222;2024-01-10T05:57:26;24.13;;;14.70;;
4053;SDS011;2042;47.956;9.222;2024-01-10T05:59:52;21.63;;;13.33;;
4053;SDS011;2042;47.956;9.222;2024-01-10T06:02:21;26.57;;;15.60;;
4053;SDS011;2042;47.956;9.222;2024-01-10T06:04:46;20.00;;;12.87;;
4053;SDS011;2042;47.956;9.222;2024-01-10T06:07:12;25.33;;;13.57;;
4053;SDS011;2042;47.956;9.222;2024-01-10T06:09:37;17.53;;;10.87;;
4053;SDS011;2042;47.956;9.222;2024-01-10T06:12:04;18.63;;;12.90;;
4053;SDS011;2042;47.956;9.222;2024-01-10T06:14:31;18.53;;;13.37;;
4053;SDS011;2042;47.956;9.222;2024-01-10T06:16:57;23.83;;;12.77;;
4053;SDS011;2042;47.956;9.222;2024-01-10T06:19:24;16.63;;;12.03;;
4053;SDS011;2042;47.956;9.222;2024-01-10T06:21:50;18.25;;;12.73;;
4053;SDS011;2042;47.956;9.222;2024-01-10T06:24:17;21.27;;;12.77;;
4053;SDS011;2042;47.956;9.222;2024-01-10T06:26:43;20.70;;;12.63;;
4053;SDS011;2042;47.956;9.222;2024-01-10T06:29:09;21.90;;;12.63;;
4053;SDS011;2042;47.956;9.222;2024-01-10T06:31:35;22.10;;;14.07;;
4053;SDS011;2042;47.956;9.222;2024-01-10T06:34:01;16.90;;;13.97;;
4053;SDS011;2042;47.956;9.222;2024-01-10T06:36:26;18.07;;;12.50;;
4053;SDS011;2042;47.956;9.222;2024-01-10T06:38:52;21.50;;;12.77;;
4053;SDS011;2042;47.956;9.222;2024-01-10T06:41:17;20.43;;;11.67;;
4053;SDS011;2042;47.956;9.222;2024-01-10T06:43:49;25.87;;;12.90;;
4053;SDS011;2042;47.956;9.222;2024-01-10T06:46:15;18.40;;;13.30;;
4053;SDS011;2042;47.956;9.222;2024-01-10T06:48:41;18.33;;;13.53;;
4053;SDS011;2042;47.956;9.222;2024-01-10T06:51:12;26.30;;;14.53;;
4053;SDS011;2042;47.956;9.222;2024-01-10T06:53:38;25.00;;;15.23;;
4053;SDS011;2042;47.956;9.222;2024-01-10T06:56:04;25.50;;;14.73;;
4053;SDS011;2042;47.956;9.222;2024-01-10T06:58:31;27.63;;;14.13;;
4053;SDS011;2042;47.956;9.222;2024-01-10T07:00:56;27.00;;;15.00;;
4053;SDS011;2042;47.956;9.222;2024-01-10T07:03:22;26.87;;;15.20;;
4053;SDS011;2042;47.956;9.222;2024-01-10T07:05:47;20.10;;;15.77;;
4053;SDS011;2042;47.956;9.222;2024-01-10T07:08:14;19.90;;;12.50;;
4053;SDS011;2042;47.956;9.222;2024-01-10T07:10:41;24.00;;;14.57;;
4053;SDS011;2042;47.956;9.222;2024-01-10T07:13:07;23.67;;;14.60;;
4053;SDS011;2042;47.956;9.222;2024-01-10T07:15:32;22.47;;;14.63;;
4053;SDS011;2042;47.956;9.222;2024-01-10T07:17:58;28.33;;;14.87;;
4053;SDS011;2042;47.956;9.222;2024-01-10T07:20:24;26.70;;;15.27;;
4053;SDS011;2042;47.956;9.222;2024-01-10T07:22:50;22.37;;;14.30;;
4053;SDS011;2042;47.956;9.222;2024-01-10T07:25:16;29.90;;;15.67;;
4053;SDS011;2042;47.956;9.222;2024-01-10T07:27:42;22.67;;;14.53;;
4053;SDS011;2042;47.956;9.222;2024-01-10T07:30:09;23.47;;;13.37;;
4053;SDS011;2042;47.956;9.222;2024-01-10T07:32:44;30.20;;;16.43;;
4053;SDS011;2042;47.956;9.222;2024-01-10T07:35:11;20.60;;;12.33;;
4053;SDS011;2042;47.956;9.222;2024-01-10T07:37:37;24.10;;;13.90;;
4053;SDS011;2042;47.956;9.222;2024-01-10T07:40:04;28.87;;;16.17;;
4053;SDS011;2042;47.956;9.222;2024-01-10T07:42:34;28.33;;;16.70;;
4053;SDS011;2042;47.956;9.222;2024-01-10T07:45:01;29.20;;;14.50;;
4053;SDS011;2042;47.956;9.222;2024-01-10T07:47:30;29.53;;;15.33;;
4053;SDS011;2042;47.956;9.222;2024-01-10T07:49:59;24.83;;;13.67;;
4053;SDS011;2042;47.956;9.222;2024-01-10T07:52:25;21.27;;;12.33;;
4053;SDS011;2042;47.956;9.222;2024-01-10T07:54:51;28.90;;;15.27;;
4053;SDS011;2042;47.956;9.222;2024-01-10T07:57:16;23.83;;;15.13;;
4053;SDS011;2042;47.956;9.222;2024-01-10T07:59:43;31.23;;;16.03;;
4053;SDS011;2042;47.956;9.222;2024-01-10T08:02:10;21.90;;;14.17;;
4053;SDS011;2042;47.956;9.222;2024-01-10T08:04:36;20.03;;;12.83;;
4053;SDS011;2042;47.956;9.222;2024-01-10T08:07:02;25.00;;;14.73;;
4053;SDS011;2042;47.956;9.222;2024-01-10T08:09:28;26.97;;;13.37;;
4053;SDS011;2042;47.956;9.222;2024-01-10T08:11:54;27.77;;;15.53;;
4053;SDS011;2042;47.956;9.222;2024-01-10T08:14:19;29.47;;;14.40;;
4053;SDS011;2042;47.956;9.222;2024-01-10T08:16:45;26.27;;;15.00;;
4053;SDS011;2042;47.956;9.222;2024-01-10T08:19:11;25.30;;;14.07;;
4053;SDS011;2042;47.956;9.222;2024-01-10T08:21:36;28.40;;;14.07;;
4053;SDS011;2042;47.956;9.222;2024-01-10T08:24:04;31.37;;;17.97;;
4053;SDS011;2042;47.956;9.222;2024-01-10T08:26:31;20.70;;;13.30;;
4053;SDS011;2042;47.956;9.222;2024-01-10T08:28:56;28.20;;;17.07;;
4053;SDS011;2042;47.956;9.222;2024-01-10T08:31:23;29.70;;;16.50;;
4053;SDS011;2042;47.956;9.222;2024-01-10T08:33:49;27.90;;;14.90;;
4053;SDS011;2042;47.956;9.222;2024-01-10T08:36:14;24.90;;;13.67;;
4053;SDS011;2042;47.956;9.222;2024-01-10T08:38:41;27.20;;;16.00;;
4053;SDS011;2042;47.956;9.222;2024-01-10T08:41:09;28.87;;;15.67;;
4053;SDS011;2042;47.956;9.222;2024-01-10T08:43:39;30.23;;;16.47;;
4053;SDS011;2042;47.956;9.222;2024-01-10T08:46:06;27.73;;;16.10;;
4053;SDS011;2042;47.956;9.222;2024-01-10T08:48:33;28.17;;;15.00;;
4053;SDS011;2042;47.956;9.222;2024-01-10T08:50:59;26.63;;;17.27;;
4053;SDS011;2042;47.956;9.222;2024-01-10T08:53:24;30.77;;;16.50;;
4053;SDS011;2042;47.956;9.222;2024-01-10T08:55:50;25.43;;;16.47;;
4053;SDS011;2042;47.956;9.222;2024-01-10T08:58:16;30.40;;;18.77;;
4053;SDS011;2042;47.956;9.222;2024-01-10T09:00:41;30.60;;;17.03;;
4053;SDS011;2042;47.956;9.222;2024-01-10T09:03:07;27.93;;;16.50;;
4053;SDS011;2042;47.956;9.222;2024-01-10T09:05:34;26.73;;;16.37;;
4053;SDS011;2042;47.956;9.222;2024-01-10T09:07:59;29.97;;;16.20;;
4053;SDS011;2042;47.956;9.222;2024-01-10T09:10:25;30.83;;;16.20;;
4053;SDS011;2042;47.956;9.222;2024-01-10T09:12:53;26.83;;;14.30;;
4053;SDS011;2042;47.956;9.222;2024-01-10T09:15:19;22.30;;;14.63;;
4053;SDS011;2042;47.956;9.222;2024-01-10T09:17:45;28.67;;;16.47;;
4053;SDS011;2042;47.956;9.222;2024-01-10T09:20:11;35.97;;;22.60;;
4053;SDS011;2042;47.956;9.222;2024-01-10T09:22:37;29.30;;;17.63;;
4053;SDS011;2042;47.956;9.222;2024-01-10T09:25:04;29.23;;;17.33;;
4053;SDS011;2042;47.956;9.222;2024-01-10T09:27:31;28.73;;;17.98;;
4053;SDS011;2042;47.956;9.222;2024-01-10T09:30:01;31.67;;;17.33;;
4053;SDS011;2042;47.956;9.222;2024-01-10T09:32:28;32.83;;;21.90;;
4053;SDS011;2042;47.956;9.222;2024-01-10T09:34:55;26.43;;;16.97;;
4053;SDS011;2042;47.956;9.222;2024-01-10T09:37:21;26.27;;;15.60;;
4053;SDS011;2042;47.956;9.222;2024-01-10T09:39:47;31.03;;;14.63;;
4053;SDS011;2042;47.956;9.222;2024-01-10T09:42:13;29.57;;;17.10;;
4053;SDS011;2042;47.956;9.222;2024-01-10T09:44:40;27.83;;;14.67;;
4053;SDS011;2042;47.956;9.222;2024-01-10T09:47:06;23.50;;;14.90;;
4053;SDS011;2042;47.956;9.222;2024-01-10T09:49:33;25.80;;;16.60;;
4053;SDS011;2042;47.956;9.222;2024-01-10T09:51:59;28.90;;;16.30;;
4053;SDS011;2042;47.956;9.222;2024-01-10T09:54:30;30.97;;;16.73;;
4053;SDS011;2042;47.956;9.222;2024-01-10T09:56:59;31.57;;;16.33;;
4053;SDS011;2042;47.956;9.222;2024-01-10T09:59:24;28.07;;;15.00;;
4053;SDS011;2042;47.956;9.222;2024-01-10T10:01:53;32.00;;;17.50;;
4053;SDS011;2042;47.956;9.222;2024-01-10T10:04:21;27.87;;;16.53;;
4053;SDS011;2042;47.956;9.222;2024-01-10T10:06:57;27.10;;;15.27;;
4053;SDS011;2042;47.956;9.222;2024-01-10T10:09:26;29.77;;;17.40;;
4053;SDS011;2042;47.956;9.222;2024-01-10T10:11:54;27.63;;;16.00;;
4053;SDS011;2042;47.956;9.222;2024-01-10T10:14:20;28.57;;;18.20;;
4053;SDS011;2042;47.956;9.222;2024-01-10T10:16:45;31.47;;;16.60;;
4053;SDS011;2042;47.956;9.222;2024-01-10T10:19:11;32.07;;;16.83;;
4053;SDS011;2042;47.956;9.222;2024-01-10T10:21:38;36.10;;;17.53;;
4053;SDS011;2042;47.956;9.222;2024-01-10T10:24:04;28.87;;;15.80;;
4053;SDS011;2042;47.956;9.222;2024-01-10T10:26:34;37.57;;;20.30;;
4053;SDS011;2042;47.956;9.222;2024-01-10T10:29:00;34.93;;;16.33;;
4053;SDS011;2042;47.956;9.222;2024-01-10T10:31:26;31.20;;;18.57;;
4053;SDS011;2042;47.956;9.222;2024-01-10T10:33:52;33.57;;;17.27;;
4053;SDS011;2042;47.956;9.222;2024-01-10T10:36:19;35.27;;;17.90;;
4053;SDS011;2042;47.956;9.222;2024-01-10T10:38:48;27.13;;;16.73;;
4053;SDS011;2042;47.956;9.222;2024-01-10T10:41:14;34.07;;;19.17;;
4053;SDS011;2042;47.956;9.222;2024-01-10T10:43:40;37.17;;;17.70;;
4053;SDS011;2042;47.956;9.222;2024-01-10T10:46:07;26.60;;;15.53;;
4053;SDS011;2042;47.956;9.222;2024-01-10T10:48:38;27.53;;;14.27;;
4053;SDS011;2042;47.956;9.222;2024-01-10T10:53:33;31.07;;;17.50;;
4053;SDS011;2042;47.956;9.222;2024-01-10T10:56:00;26.70;;;15.07;;
4053;SDS011;2042;47.956;9.222;2024-01-10T10:58:27;33.30;;;18.53;;
4053;SDS011;2042;47.956;9.222;2024-01-10T11:00:53;28.37;;;15.33;;
4053;SDS011;2042;47.956;9.222;2024-01-10T11:03:20;32.00;;;16.73;;
4053;SDS011;2042;47.956;9.222;2024-01-10T11:05:46;25.83;;;14.83;;
4053;SDS011;2042;47.956;9.222;2024-01-10T11:08:12;25.63;;;15.77;;
4053;SDS011;2042;47.956;9.222;2024-01-10T11:10:42;29.40;;;15.00;;
4053;SDS011;2042;47.956;9.222;2024-01-10T11:24:30;30.50;;;16.27;;
4053;SDS011;2042;47.956;9.222;2024-01-10T11:29:52;30.20;;;17.07;;
4053;SDS011;2042;47.956;9.222;2024-01-10T11:32:22;32.57;;;18.00;;
4053;SDS011;2042;47.956;9.222;2024-01-10T11:34:58;30.00;;;16.50;;
4053;SDS011;2042;47.956;9.222;2024-01-10T11:37:28;32.57;;;17.97;;
4053;SDS011;2042;47.956;9.222;2024-01-10T11:40:09;42.03;;;20.33;;
4053;SDS011;2042;47.956;9.222;2024-01-10T11:42:42;31.43;;;17.67;;
4053;SDS011;2042;47.956;9.222;2024-01-10T11:45:08;30.40;;;17.57;;
4053;SDS011;2042;47.956;9.222;2024-01-10T11:47:34;24.30;;;12.50;;
4053;SDS011;2042;47.956;9.222;2024-01-10T11:50:04;32.50;;;16.33;;
4053;SDS011;2042;47.956;9.222;2024-01-10T11:52:32;36.43;;;17.17;;
4053;SDS011;2042;47.956;9.222;2024-01-10T11:54:59;32.67;;;17.00;;
4053;SDS011;2042;47.956;9.222;2024-01-10T11:57:26;26.40;;;17.07;;
4053;SDS011;2042;47.956;9.222;2024-01-10T11:59:56;31.58;;;17.83;;
4053;SDS011;2042;47.956;9.222;2024-01-10T12:02:25;25.30;;;14.53;;
4053;SDS011;2042;47.956;9.222;2024-01-10T12:04:52;23.27;;;15.43;;
4053;SDS011;2042;47.956;9.222;2024-01-10T12:07:18;28.43;;;14.23;;
4053;SDS011;2042;47.956;9.222;2024-01-10T12:09:45;26.07;;;14.70;;
4053;SDS011;2042;47.956;9.222;2024-01-10T12:12:12;20.03;;;13.63;;
4053;SDS011;2042;47.956;9.222;2024-01-10T12:14:39;32.30;;;16.63;;
4053;SDS011;2042;47.956;9.222;2024-01-10T12:17:05;23.30;;;13.27;;
4053;SDS011;2042;47.956;9.222;2024-01-10T12:19:33;21.07;;;13.57;;
4053;SDS011;2042;47.956;9.222;2024-01-10T12:21:59;27.33;;;16.53;;
4053;SDS011;2042;47.956;9.222;2024-01-10T12:24:27;25.43;;;16.03;;
4053;SDS011;2042;47.956;9.222;2024-01-10T12:26:54;29.77;;;17.10;;
4053;SDS011;2042;47.956;9.222;2024-01-10T12:29:21;32.53;;;18.00;;
4053;SDS011;2042;47.956;9.222;2024-01-10T12:31:47;31.93;;;15.47;;
4053;SDS011;2042;47.956;9.222;2024-01-10T12:34:14;29.37;;;15.40;;
4053;SDS011;2042;47.956;9.222;2024-01-10T12:36:41;21.33;;;12.90;;
4053;SDS011;2042;47.956;9.222;2024-01-10T12:39:07;28.93;;;17.50;;
4053;SDS011;2042;47.956;9.222;2024-01-10T12:41:33;23.70;;;13.40;;
4053;SDS011;2042;47.956;9.222;2024-01-10T12:43:59;26.90;;;14.37;;
4053;SDS011;2042;47.956;9.222;2024-01-10T12:46:28;29.10;;;14.10;;
4053;SDS011;2042;47.956;9.222;2024-01-10T12:49:01;25.10;;;13.27;;
4053;SDS011;2042;47.956;9.222;2024-01-10T12:51:28;27.10;;;15.77;;
4053;SDS011;2042;47.956;9.222;2024-01-10T12:53:55;26.13;;;15.00;;
4053;SDS011;2042;47.956;9.222;2024-01-10T12:56:21;25.70;;;14.97;;
4053;SDS011;2042;47.956;9.222;2024-01-10T12:58:47;30.20;;;15.80;;
4053;SDS011;2042;47.956;9.222;2024-01-10T13:01:13;33.63;;;20.52;;
4053;SDS011;2042;47.956;9.222;2024-01-10T13:03:39;26.73;;;15.40;;
4053;SDS011;2042;47.956;9.222;2024-01-10T13:06:05;29.07;;;15.07;;
4053;SDS011;2042;47.956;9.222;2024-01-10T13:08:31;27.50;;;16.80;;
4053;SDS011;2042;47.956;9.222;2024-01-10T13:10:59;27.23;;;16.10;;
4053;SDS011;2042;47.956;9.222;2024-01-10T13:13:25;27.93;;;15.87;;
4053;SDS011;2042;47.956;9.222;2024-01-10T13:15:50;28.13;;;17.20;;
4053;SDS011;2042;47.956;9.222;2024-01-10T13:18:16;29.73;;;16.67;;
4053;SDS011;2042;47.956;9.222;2024-01-10T13:20:43;31.53;;;16.23;;
4053;SDS011;2042;47.956;9.222;2024-01-10T13:23:09;30.47;;;16.60;;
4053;SDS011;2042;47.956;9.222;2024-01-10T13:25:35;32.60;;;18.80;;
4053;SDS011;2042;47.956;9.222;2024-01-10T13:28:02;28.53;;;16.20;;
4053;SDS011;2042;47.956;9.222;2024-01-10T13:30:29;31.90;;;17.97;;
4053;SDS011;2042;47.956;9.222;2024-01-10T13:32:55;28.53;;;15.97;;
4053;SDS011;2042;47.956;9.222;2024-01-10T13:35:23;34.42;;;21.85;;
4053;SDS011;2042;47.956;9.222;2024-01-10T13:37:49;30.83;;;16.10;;
4053;SDS011;2042;47.956;9.222;2024-01-10T13:40:15;29.87;;;17.23;;
4053;SDS011;2042;47.956;9.222;2024-01-10T13:42:41;19.40;;;12.97;;
4053;SDS011;2042;47.956;9.222;2024-01-10T13:45:08;28.57;;;14.50;;
4053;SDS011;2042;47.956;9.222;2024-01-10T13:47:37;29.90;;;15.47;;
4053;SDS011;2042;47.956;9.222;2024-01-10T13:50:05;21.20;;;13.27;;
4053;SDS011;2042;47.956;9.222;2024-01-10T13:52:35;26.90;;;15.40;;
4053;SDS011;2042;47.956;9.222;2024-01-10T13:55:01;25.40;;;13.47;;
4053;SDS011;2042;47.956;9.222;2024-01-10T13:57:30;27.23;;;14.70;;
4053;SDS011;2042;47.956;9.222;2024-01-10T13:59:59;26.90;;;15.00;;
4053;SDS011;2042;47.956;9.222;2024-01-10T14:02:25;29.43;;;14.23;;
4053;SDS011;2042;47.956;9.222;2024-01-10T14:04:51;24.70;;;14.77;;
4053;SDS011;2042;47.956;9.222;2024-01-10T14:07:19;21.77;;;12.47;;
4053;SDS011;2042;47.956;9.222;2024-01-10T14:09:45;25.40;;;16.60;;
4053;SDS011;2042;47.956;9.222;2024-01-10T14:12:11;28.17;;;16.97;;
4053;SDS011;2042;47.956;9.222;2024-01-10T14:14:37;22.20;;;14.20;;
4053;SDS011;2042;47.956;9.222;2024-01-10T14:17:03;29.03;;;14.07;;
4053;SDS011;2042;47.956;9.222;2024-01-10T14:19:31;26.73;;;13.50;;
4053;SDS011;2042;47.956;9.222;2024-01-10T14:21:58;23.60;;;14.40;;
4053;SDS011;2042;47.956;9.222;2024-01-10T14:24:23;25.90;;;13.67;;
4053;SDS011;2042;47.956;9.222;2024-01-10T14:26:49;28.17;;;15.20;;
4053;SDS011;2042;47.956;9.222;2024-01-10T14:29:15;20.83;;;13.17;;
4053;SDS011;2042;47.956;9.222;2024-01-10T14:31:42;21.23;;;12.67;;
4053;SDS011;2042;47.956;9.222;2024-01-10T14:34:07;23.23;;;13.30;;
4053;SDS011;2042;47.956;9.222;2024-01-10T14:36:34;25.30;;;13.80;;
4053;SDS011;2042;47.956;9.222;2024-01-10T14:38:59;29.50;;;16.67;;
4053;SDS011;2042;47.956;9.222;2024-01-10T14:41:25;27.30;;;16.77;;
4053;SDS011;2042;47.956;9.222;2024-01-10T14:43:51;24.53;;;12.53;;
4053;SDS011;2042;47.956;9.222;2024-01-10T14:46:16;30.07;;;15.80;;
4053;SDS011;2042;47.956;9.222;2024-01-10T14:48:42;26.23;;;13.60;;
4053;SDS011;2042;47.956;9.222;2024-01-10T14:51:08;20.13;;;12.70;;
4053;SDS011;2042;47.956;9.222;2024-01-10T14:53:33;22.50;;;13.67;;
4053;SDS011;2042;47.956;9.222;2024-01-10T14:56:02;27.07;;;15.13;;
4053;SDS011;2042;47.956;9.222;2024-01-10T14:58:28;20.57;;;12.83;;
4053;SDS011;2042;47.956;9.222;2024-01-10T15:00:53;24.07;;;13.97;;